KMIA/MIA METAR and TAF weather

Enter ICAO airport designator
Station Type Date Time Source
KMIA METAR 2022/11/26 09:53 UTC NOAA

KMIA 260953Z 33004KT 10SM SCT250 24/23 A3003 RMK AO2 SLP168 T02440228


Station Type Date Time Source
KMIA Decoded METAR 2022/11/26 09:53 UTC NOAA

MIAMI INTERNATIONAL AIRPORT , FL, United States (KMIA) 25-47N 080-19W 8M
Nov 26, 2022 - 04:53 AM EST / 2022.11.26 0953 UTC
Wind: from the NNW (330 degrees) at 5 MPH (4 KT):0
Visibility: 10 mile(s):0
Sky conditions: partly cloudy
Temperature: 75.9 F (24.4 C)
Dew Point: 73.0 F (22.8 C)
Relative Humidity: 90%
Pressure (altimeter): 30.03 in. Hg (1016 hPa)
ob: KMIA 260953Z 33004KT 10SM SCT250 24/23 A3003 RMK AO2 SLP168 T02440228
cycle: 10

Station Type Date Time Source
KMIA TAF 2022/11/26 09:03 UTC NOAA

TAF
AMD KMIA 260900Z 2609/2712 VRB04KT P6SM FEW030
FM261500 11007KT P6SM SCT025 BKN250
FM270300 VRB05KT P6SM FEW025 BKN250

Example: see airport list